sensor_id;sensor_type;location;lat;lon;timestamp;P1;durP1;ratioP1;P2;durP2;ratioP2
23260;SDS011;11799;47.740;-3.390;2022-09-03T00:13:26;21.40;;;17.20;;
23260;SDS011;11799;47.740;-3.390;2022-09-03T00:15:57;26.55;;;16.55;;
23260;SDS011;11799;47.740;-3.390;2022-09-03T00:18:28;23.13;;;16.90;;
23260;SDS011;11799;47.740;-3.390;2022-09-03T00:21:02;22.88;;;14.43;;
23260;SDS011;11799;47.740;-3.390;2022-09-03T00:23:34;26.50;;;17.58;;
23260;SDS011;11799;47.740;-3.390;2022-09-03T00:28:39;23.65;;;15.40;;
23260;SDS011;11799;47.740;-3.390;2022-09-03T00:31:10;21.05;;;16.25;;
23260;SDS011;11799;47.740;-3.390;2022-09-03T00:33:43;22.98;;;16.70;;
23260;SDS011;11799;47.740;-3.390;2022-09-03T00:36:14;21.50;;;15.98;;
23260;SDS011;11799;47.740;-3.390;2022-09-03T00:38:43;20.42;;;13.23;;
23260;SDS011;11799;47.740;-3.390;2022-09-03T00:47:33;23.48;;;15.50;;
23260;SDS011;11799;47.740;-3.390;2022-09-03T00:52:33;22.52;;;17.38;;
23260;SDS011;11799;47.740;-3.390;2022-09-03T01:01:17;21.77;;;15.05;;
23260;SDS011;11799;47.740;-3.390;2022-09-03T01:04:02;23.98;;;17.27;;
23260;SDS011;11799;47.740;-3.390;2022-09-03T01:07:12;23.13;;;17.05;;
23260;SDS011;11799;47.740;-3.390;2022-09-03T01:10:11;24.20;;;16.85;;
23260;SDS011;11799;47.740;-3.390;2022-09-03T01:13:11;23.60;;;17.70;;
23260;SDS011;11799;47.740;-3.390;2022-09-03T01:18:38;29.35;;;19.27;;
23260;SDS011;11799;47.740;-3.390;2022-09-03T01:24:17;24.25;;;17.02;;
23260;SDS011;11799;47.740;-3.390;2022-09-03T01:32:56;28.02;;;17.70;;
23260;SDS011;11799;47.740;-3.390;2022-09-03T01:35:33;28.25;;;19.10;;
23260;SDS011;11799;47.740;-3.390;2022-09-03T01:38:30;27.92;;;19.52;;
23260;SDS011;11799;47.740;-3.390;2022-09-03T01:47:06;26.75;;;19.23;;
23260;SDS011;11799;47.740;-3.390;2022-09-03T01:50:01;22.50;;;15.52;;
23260;SDS011;11799;47.740;-3.390;2022-09-03T01:55:53;28.80;;;20.58;;
23260;SDS011;11799;47.740;-3.390;2022-09-03T01:58:38;29.00;;;19.60;;
23260;SDS011;11799;47.740;-3.390;2022-09-03T02:01:21;30.60;;;20.13;;
23260;SDS011;11799;47.740;-3.390;2022-09-03T02:03:53;27.98;;;19.55;;
23260;SDS011;11799;47.740;-3.390;2022-09-03T02:06:20;26.25;;;19.23;;
23260;SDS011;11799;47.740;-3.390;2022-09-03T02:08:46;30.70;;;19.13;;
23260;SDS011;11799;47.740;-3.390;2022-09-03T02:11:11;27.95;;;19.35;;
23260;SDS011;11799;47.740;-3.390;2022-09-03T02:13:38;28.75;;;19.50;;
23260;SDS011;11799;47.740;-3.390;2022-09-03T02:16:10;24.33;;;18.05;;
23260;SDS011;11799;47.740;-3.390;2022-09-03T02:18:43;30.00;;;20.30;;
23260;SDS011;11799;47.740;-3.390;2022-09-03T02:21:15;31.67;;;21.13;;
23260;SDS011;11799;47.740;-3.390;2022-09-03T02:23:44;29.58;;;19.58;;
23260;SDS011;11799;47.740;-3.390;2022-09-03T02:26:11;30.67;;;21.38;;
23260;SDS011;11799;47.740;-3.390;2022-09-03T02:28:38;30.00;;;20.10;;
23260;SDS011;11799;47.740;-3.390;2022-09-03T02:31:04;32.22;;;21.00;;
23260;SDS011;11799;47.740;-3.390;2022-09-03T02:33:31;28.80;;;19.40;;
23260;SDS011;11799;47.740;-3.390;2022-09-03T02:36:03;27.23;;;20.00;;
23260;SDS011;11799;47.740;-3.390;2022-09-03T02:38:30;30.13;;;21.98;;
23260;SDS011;11799;47.740;-3.390;2022-09-03T02:40:56;31.83;;;20.75;;
23260;SDS011;11799;47.740;-3.390;2022-09-03T02:46:11;29.33;;;19.85;;
23260;SDS011;11799;47.740;-3.390;2022-09-03T02:48:42;28.40;;;20.35;;
23260;SDS011;11799;47.740;-3.390;2022-09-03T02:51:07;30.45;;;20.42;;
23260;SDS011;11799;47.740;-3.390;2022-09-03T02:53:33;27.58;;;18.15;;
23260;SDS011;11799;47.740;-3.390;2022-09-03T02:55:59;26.10;;;19.20;;
23260;SDS011;11799;47.740;-3.390;2022-09-03T02:58:26;29.50;;;19.70;;
23260;SDS011;11799;47.740;-3.390;2022-09-03T03:00:52;30.02;;;20.38;;
23260;SDS011;11799;47.740;-3.390;2022-09-03T03:03:18;29.15;;;19.75;;
23260;SDS011;11799;47.740;-3.390;2022-09-03T03:05:48;33.70;;;21.67;;
23260;SDS011;11799;47.740;-3.390;2022-09-03T03:08:15;26.92;;;17.13;;
23260;SDS011;11799;47.740;-3.390;2022-09-03T03:10:48;26.85;;;19.55;;
23260;SDS011;11799;47.740;-3.390;2022-09-03T03:13:16;28.10;;;19.73;;
23260;SDS011;11799;47.740;-3.390;2022-09-03T03:15:42;30.35;;;20.92;;
23260;SDS011;11799;47.740;-3.390;2022-09-03T03:18:09;28.85;;;20.63;;
23260;SDS011;11799;47.740;-3.390;2022-09-03T03:20:38;35.13;;;21.58;;
23260;SDS011;11799;47.740;-3.390;2022-09-03T03:23:04;35.97;;;21.13;;
23260;SDS011;11799;47.740;-3.390;2022-09-03T03:25:31;33.30;;;21.98;;
23260;SDS011;11799;47.740;-3.390;2022-09-03T03:27:57;27.88;;;20.42;;
23260;SDS011;11799;47.740;-3.390;2022-09-03T03:30:23;30.83;;;20.95;;
23260;SDS011;11799;47.740;-3.390;2022-09-03T03:32:48;30.27;;;19.85;;
23260;SDS011;11799;47.740;-3.390;2022-09-03T03:35:14;27.02;;;18.85;;
23260;SDS011;11799;47.740;-3.390;2022-09-03T03:37:39;27.15;;;17.77;;
23260;SDS011;11799;47.740;-3.390;2022-09-03T03:40:05;27.25;;;18.33;;
23260;SDS011;11799;47.740;-3.390;2022-09-03T03:42:32;19.48;;;15.68;;
23260;SDS011;11799;47.740;-3.390;2022-09-03T03:44:59;21.52;;;17.05;;
23260;SDS011;11799;47.740;-3.390;2022-09-03T03:47:25;22.85;;;15.98;;
23260;SDS011;11799;47.740;-3.390;2022-09-03T03:49:51;19.52;;;14.65;;
23260;SDS011;11799;47.740;-3.390;2022-09-03T03:52:16;18.40;;;13.90;;
23260;SDS011;11799;47.740;-3.390;2022-09-03T03:54:42;21.77;;;14.68;;
23260;SDS011;11799;47.740;-3.390;2022-09-03T03:57:07;20.13;;;14.43;;
23260;SDS011;11799;47.740;-3.390;2022-09-03T03:59:33;18.23;;;13.98;;
23260;SDS011;11799;47.740;-3.390;2022-09-03T04:01:58;16.80;;;12.30;;
23260;SDS011;11799;47.740;-3.390;2022-09-03T04:04:24;14.23;;;11.82;;
23260;SDS011;11799;47.740;-3.390;2022-09-03T04:06:49;19.15;;;13.65;;
23260;SDS011;11799;47.740;-3.390;2022-09-03T04:09:15;17.92;;;14.10;;
23260;SDS011;11799;47.740;-3.390;2022-09-03T04:11:41;17.13;;;13.73;;
23260;SDS011;11799;47.740;-3.390;2022-09-03T04:14:06;14.57;;;12.15;;
23260;SDS011;11799;47.740;-3.390;2022-09-03T04:16:32;18.40;;;14.35;;
23260;SDS011;11799;47.740;-3.390;2022-09-03T04:18:57;18.10;;;12.90;;
23260;SDS011;11799;47.740;-3.390;2022-09-03T04:21:27;17.23;;;14.18;;
23260;SDS011;11799;47.740;-3.390;2022-09-03T04:23:54;15.63;;;12.50;;
23260;SDS011;11799;47.740;-3.390;2022-09-03T04:26:25;15.85;;;12.25;;
23260;SDS011;11799;47.740;-3.390;2022-09-03T04:28:55;16.55;;;12.45;;
23260;SDS011;11799;47.740;-3.390;2022-09-03T04:31:22;13.38;;;10.38;;
23260;SDS011;11799;47.740;-3.390;2022-09-03T04:33:47;14.23;;;11.20;;
23260;SDS011;11799;47.740;-3.390;2022-09-03T04:36:14;19.88;;;12.02;;
23260;SDS011;11799;47.740;-3.390;2022-09-03T04:38:46;14.25;;;11.02;;
23260;SDS011;11799;47.740;-3.390;2022-09-03T04:41:14;15.93;;;12.60;;
23260;SDS011;11799;47.740;-3.390;2022-09-03T04:43:41;15.82;;;10.90;;
23260;SDS011;11799;47.740;-3.390;2022-09-03T04:46:08;15.80;;;12.38;;
23260;SDS011;11799;47.740;-3.390;2022-09-03T04:48:35;14.98;;;11.43;;
23260;SDS011;11799;47.740;-3.390;2022-09-03T04:51:11;12.32;;;10.35;;
23260;SDS011;11799;47.740;-3.390;2022-09-03T04:53:40;15.38;;;12.60;;
23260;SDS011;11799;47.740;-3.390;2022-09-03T04:56:20;16.42;;;11.32;;
23260;SDS011;11799;47.740;-3.390;2022-09-03T04:58:48;14.15;;;10.98;;
23260;SDS011;11799;47.740;-3.390;2022-09-03T05:01:19;13.70;;;11.73;;
23260;SDS011;11799;47.740;-3.390;2022-09-03T05:03:46;16.30;;;11.38;;
23260;SDS011;11799;47.740;-3.390;2022-09-03T05:06:13;14.57;;;11.55;;
23260;SDS011;11799;47.740;-3.390;2022-09-03T05:08:41;14.80;;;12.57;;
23260;SDS011;11799;47.740;-3.390;2022-09-03T05:11:08;15.63;;;12.20;;
23260;SDS011;11799;47.740;-3.390;2022-09-03T05:13:34;14.07;;;10.70;;
23260;SDS011;11799;47.740;-3.390;2022-09-03T05:16:04;12.65;;;10.75;;
23260;SDS011;11799;47.740;-3.390;2022-09-03T05:18:32;14.60;;;11.50;;
23260;SDS011;11799;47.740;-3.390;2022-09-03T05:21:03;13.43;;;11.30;;
23260;SDS011;11799;47.740;-3.390;2022-09-03T05:23:31;13.43;;;10.40;;
23260;SDS011;11799;47.740;-3.390;2022-09-03T05:26:01;16.13;;;10.98;;
23260;SDS011;11799;47.740;-3.390;2022-09-03T05:28:28;15.05;;;10.98;;
23260;SDS011;11799;47.740;-3.390;2022-09-03T05:31:37;14.27;;;10.90;;
23260;SDS011;11799;47.740;-3.390;2022-09-03T05:33:45;15.43;;;12.30;;
23260;SDS011;11799;47.740;-3.390;2022-09-03T05:36:13;16.35;;;12.10;;
23260;SDS011;11799;47.740;-3.390;2022-09-03T05:38:40;14.20;;;10.98;;
23260;SDS011;11799;47.740;-3.390;2022-09-03T05:41:07;13.85;;;11.77;;
23260;SDS011;11799;47.740;-3.390;2022-09-03T05:43:34;16.48;;;12.90;;
23260;SDS011;11799;47.740;-3.390;2022-09-03T05:46:01;15.98;;;12.15;;
23260;SDS011;11799;47.740;-3.390;2022-09-03T05:48:31;15.77;;;11.88;;
23260;SDS011;11799;47.740;-3.390;2022-09-03T05:51:09;15.90;;;11.70;;
23260;SDS011;11799;47.740;-3.390;2022-09-03T05:53:37;16.33;;;11.63;;
23260;SDS011;11799;47.740;-3.390;2022-09-03T05:56:05;13.65;;;11.05;;
23260;SDS011;11799;47.740;-3.390;2022-09-03T05:58:36;15.95;;;12.13;;
23260;SDS011;11799;47.740;-3.390;2022-09-03T06:01:11;17.50;;;12.95;;
23260;SDS011;11799;47.740;-3.390;2022-09-03T06:03:44;15.18;;;11.60;;
23260;SDS011;11799;47.740;-3.390;2022-09-03T06:06:12;18.65;;;11.68;;
23260;SDS011;11799;47.740;-3.390;2022-09-03T06:08:38;16.10;;;11.45;;
23260;SDS011;11799;47.740;-3.390;2022-09-03T06:11:04;12.45;;;9.68;;
23260;SDS011;11799;47.740;-3.390;2022-09-03T06:13:31;14.70;;;11.50;;
23260;SDS011;11799;47.740;-3.390;2022-09-03T06:15:58;16.60;;;11.68;;
23260;SDS011;11799;47.740;-3.390;2022-09-03T06:18:25;13.88;;;11.43;;
23260;SDS011;11799;47.740;-3.390;2022-09-03T06:20:55;13.45;;;11.20;;
23260;SDS011;11799;47.740;-3.390;2022-09-03T06:23:24;13.48;;;11.13;;
23260;SDS011;11799;47.740;-3.390;2022-09-03T06:26:01;14.88;;;10.45;;
23260;SDS011;11799;47.740;-3.390;2022-09-03T06:28:27;16.17;;;10.45;;
23260;SDS011;11799;47.740;-3.390;2022-09-03T06:30:53;15.52;;;12.27;;
23260;SDS011;11799;47.740;-3.390;2022-09-03T06:33:21;20.23;;;12.40;;
23260;SDS011;11799;47.740;-3.390;2022-09-03T06:35:59;14.73;;;11.77;;
23260;SDS011;11799;47.740;-3.390;2022-09-03T06:38:26;17.63;;;11.45;;
23260;SDS011;11799;47.740;-3.390;2022-09-03T06:40:54;14.77;;;11.15;;
23260;SDS011;11799;47.740;-3.390;2022-09-03T06:43:22;14.80;;;10.88;;
23260;SDS011;11799;47.740;-3.390;2022-09-03T06:45:55;13.63;;;10.40;;
23260;SDS011;11799;47.740;-3.390;2022-09-03T06:48:25;15.20;;;10.57;;
23260;SDS011;11799;47.740;-3.390;2022-09-03T06:50:52;16.00;;;11.23;;
23260;SDS011;11799;47.740;-3.390;2022-09-03T06:53:22;12.80;;;10.07;;
23260;SDS011;11799;47.740;-3.390;2022-09-03T06:55:53;13.35;;;10.20;;
23260;SDS011;11799;47.740;-3.390;2022-09-03T06:58:19;11.50;;;9.52;;
23260;SDS011;11799;47.740;-3.390;2022-09-03T07:00:46;10.90;;;8.90;;
23260;SDS011;11799;47.740;-3.390;2022-09-03T07:03:11;13.82;;;9.18;;
23260;SDS011;11799;47.740;-3.390;2022-09-03T07:05:37;13.25;;;9.80;;
23260;SDS011;11799;47.740;-3.390;2022-09-03T07:08:02;11.25;;;7.95;;
23260;SDS011;11799;47.740;-3.390;2022-09-03T07:10:28;11.48;;;7.43;;
23260;SDS011;11799;47.740;-3.390;2022-09-03T07:12:54;9.52;;;7.10;;
23260;SDS011;11799;47.740;-3.390;2022-09-03T07:15:20;11.55;;;7.25;;
23260;SDS011;11799;47.740;-3.390;2022-09-03T07:17:46;11.82;;;7.63;;
23260;SDS011;11799;47.740;-3.390;2022-09-03T07:20:11;11.50;;;7.22;;
23260;SDS011;11799;47.740;-3.390;2022-09-03T07:22:37;10.57;;;6.60;;
23260;SDS011;11799;47.740;-3.390;2022-09-03T07:25:02;10.70;;;5.53;;
23260;SDS011;11799;47.740;-3.390;2022-09-03T07:27:28;10.07;;;5.53;;
23260;SDS011;11799;47.740;-3.390;2022-09-03T07:29:54;8.45;;;4.55;;
23260;SDS011;11799;47.740;-3.390;2022-09-03T07:32:20;7.22;;;4.00;;
23260;SDS011;11799;47.740;-3.390;2022-09-03T07:34:45;6.22;;;3.47;;
23260;SDS011;11799;47.740;-3.390;2022-09-03T07:37:11;5.22;;;3.13;;
23260;SDS011;11799;47.740;-3.390;2022-09-03T07:39:36;6.30;;;2.75;;
23260;SDS011;11799;47.740;-3.390;2022-09-03T07:42:02;6.80;;;2.83;;
23260;SDS011;11799;47.740;-3.390;2022-09-03T07:44:28;6.93;;;2.58;;
23260;SDS011;11799;47.740;-3.390;2022-09-03T07:46:55;5.47;;;2.55;;
23260;SDS011;11799;47.740;-3.390;2022-09-03T07:49:20;4.30;;;2.72;;
23260;SDS011;11799;47.740;-3.390;2022-09-03T07:51:46;5.50;;;2.30;;
23260;SDS011;11799;47.740;-3.390;2022-09-03T07:54:14;4.53;;;2.33;;
23260;SDS011;11799;47.740;-3.390;2022-09-03T07:56:40;4.05;;;2.08;;
23260;SDS011;11799;47.740;-3.390;2022-09-03T07:59:06;4.47;;;1.80;;
23260;SDS011;11799;47.740;-3.390;2022-09-03T08:01:33;3.22;;;1.90;;
23260;SDS011;11799;47.740;-3.390;2022-09-03T08:04:00;7.43;;;1.98;;
23260;SDS011;11799;47.740;-3.390;2022-09-03T08:06:27;4.82;;;1.92;;
23260;SDS011;11799;47.740;-3.390;2022-09-03T08:08:56;4.72;;;2.10;;
23260;SDS011;11799;47.740;-3.390;2022-09-03T08:11:24;4.43;;;1.90;;
23260;SDS011;11799;47.740;-3.390;2022-09-03T08:13:55;4.28;;;2.00;;
23260;SDS011;11799;47.740;-3.390;2022-09-03T08:16:25;6.07;;;1.88;;
23260;SDS011;11799;47.740;-3.390;2022-09-03T08:18:52;3.25;;;1.65;;
23260;SDS011;11799;47.740;-3.390;2022-09-03T08:21:18;4.28;;;1.70;;
23260;SDS011;11799;47.740;-3.390;2022-09-03T08:23:45;7.53;;;1.70;;
23260;SDS011;11799;47.740;-3.390;2022-09-03T08:26:12;6.22;;;1.60;;
23260;SDS011;11799;47.740;-3.390;2022-09-03T08:28:39;4.28;;;1.30;;
23260;SDS011;11799;47.740;-3.390;2022-09-03T08:31:11;2.85;;;1.20;;
23260;SDS011;11799;47.740;-3.390;2022-09-03T08:33:38;6.85;;;1.52;;
23260;SDS011;11799;47.740;-3.390;2022-09-03T08:36:07;4.10;;;1.45;;
23260;SDS011;11799;47.740;-3.390;2022-09-03T08:38:37;4.18;;;1.50;;
23260;SDS011;11799;47.740;-3.390;2022-09-03T08:44:02;4.90;;;1.60;;
23260;SDS011;11799;47.740;-3.390;2022-09-03T08:49:05;5.18;;;1.80;;
23260;SDS011;11799;47.740;-3.390;2022-09-03T08:51:33;5.05;;;1.50;;
23260;SDS011;11799;47.740;-3.390;2022-09-03T08:54:02;4.63;;;1.60;;
23260;SDS011;11799;47.740;-3.390;2022-09-03T08:56:30;4.32;;;1.55;;
23260;SDS011;11799;47.740;-3.390;2022-09-03T08:58:59;5.82;;;1.58;;
23260;SDS011;11799;47.740;-3.390;2022-09-03T09:07:03;1.75;;;1.42;;
23260;SDS011;11799;47.740;-3.390;2022-09-03T09:20:49;6.65;;;1.67;;
23260;SDS011;11799;47.740;-3.390;2022-09-03T09:23:20;4.45;;;1.58;;
23260;SDS011;11799;47.740;-3.390;2022-09-03T09:25:52;4.55;;;1.70;;
23260;SDS011;11799;47.740;-3.390;2022-09-03T09:28:23;4.68;;;1.48;;
23260;SDS011;11799;47.740;-3.390;2022-09-03T09:30:55;6.47;;;1.65;;
23260;SDS011;11799;47.740;-3.390;2022-09-03T09:33:21;4.72;;;1.40;;
23260;SDS011;11799;47.740;-3.390;2022-09-03T09:35:47;6.47;;;1.60;;
23260;SDS011;11799;47.740;-3.390;2022-09-03T09:38:13;4.07;;;1.50;;
23260;SDS011;11799;47.740;-3.390;2022-09-03T09:40:40;2.95;;;1.60;;
23260;SDS011;11799;47.740;-3.390;2022-09-03T09:45:39;4.95;;;1.48;;
23260;SDS011;11799;47.740;-3.390;2022-09-03T09:50:46;5.15;;;1.90;;
23260;SDS011;11799;47.740;-3.390;2022-09-03T09:53:12;4.82;;;1.58;;
23260;SDS011;11799;47.740;-3.390;2022-09-03T09:55:56;3.70;;;1.40;;
23260;SDS011;11799;47.740;-3.390;2022-09-03T09:58:23;5.53;;;1.70;;
23260;SDS011;11799;47.740;-3.390;2022-09-03T10:00:59;6.50;;;1.70;;
23260;SDS011;11799;47.740;-3.390;2022-09-03T10:03:29;4.45;;;1.52;;
23260;SDS011;11799;47.740;-3.390;2022-09-03T10:06:00;4.93;;;1.70;;
23260;SDS011;11799;47.740;-3.390;2022-09-03T10:08:49;5.22;;;1.73;;
23260;SDS011;11799;47.740;-3.390;2022-09-03T10:11:15;4.90;;;1.80;;
23260;SDS011;11799;47.740;-3.390;2022-09-03T10:13:43;3.80;;;1.90;;
23260;SDS011;11799;47.740;-3.390;2022-09-03T10:24:39;4.13;;;1.70;;
23260;SDS011;11799;47.740;-3.390;2022-09-03T10:27:09;3.38;;;1.60;;
23260;SDS011;11799;47.740;-3.390;2022-09-03T10:29:38;4.80;;;1.80;;
23260;SDS011;11799;47.740;-3.390;2022-09-03T10:35:36;5.45;;;1.90;;
23260;SDS011;11799;47.740;-3.390;2022-09-03T10:40:37;5.75;;;1.92;;
23260;SDS011;11799;47.740;-3.390;2022-09-03T10:48:20;4.82;;;1.88;;
23260;SDS011;11799;47.740;-3.390;2022-09-03T11:05:19;7.68;;;2.28;;
23260;SDS011;11799;47.740;-3.390;2022-09-03T11:07:49;4.80;;;1.80;;
23260;SDS011;11799;47.740;-3.390;2022-09-03T11:13:07;3.40;;;1.70;;
23260;SDS011;11799;47.740;-3.390;2022-09-03T11:18:32;3.47;;;1.48;;
23260;SDS011;11799;47.740;-3.390;2022-09-03T11:21:04;5.10;;;1.48;;
23260;SDS011;11799;47.740;-3.390;2022-09-03T11:23:36;3.90;;;1.70;;
23260;SDS011;11799;47.740;-3.390;2022-09-03T11:26:10;7.25;;;1.80;;
23260;SDS011;11799;47.740;-3.390;2022-09-03T11:36:50;3.90;;;1.55;;
23260;SDS011;11799;47.740;-3.390;2022-09-03T11:39:24;2.92;;;1.75;;
23260;SDS011;11799;47.740;-3.390;2022-09-03T11:41:59;7.43;;;1.58;;
23260;SDS011;11799;47.740;-3.390;2022-09-03T11:44:38;6.13;;;1.65;;
23260;SDS011;11799;47.740;-3.390;2022-09-03T11:47:21;4.72;;;1.77;;
23260;SDS011;11799;47.740;-3.390;2022-09-03T11:49:49;6.65;;;1.70;;
23260;SDS011;11799;47.740;-3.390;2022-09-03T11:52:29;5.15;;;1.67;;
23260;SDS011;11799;47.740;-3.390;2022-09-03T11:55:05;2.95;;;1.50;;
23260;SDS011;11799;47.740;-3.390;2022-09-03T11:57:32;4.75;;;1.52;;
23260;SDS011;11799;47.740;-3.390;2022-09-03T12:00:14;5.13;;;1.77;;
23260;SDS011;11799;47.740;-3.390;2022-09-03T12:02:46;3.17;;;1.58;;
23260;SDS011;11799;47.740;-3.390;2022-09-03T12:10:52;5.57;;;1.42;;
23260;SDS011;11799;47.740;-3.390;2022-09-03T12:16:08;6.53;;;1.70;;
23260;SDS011;11799;47.740;-3.390;2022-09-03T12:18:46;5.82;;;1.67;;
23260;SDS011;11799;47.740;-3.390;2022-09-03T12:21:17;7.80;;;2.90;;
23260;SDS011;11799;47.740;-3.390;2022-09-03T12:23:44;4.38;;;1.40;;
23260;SDS011;11799;47.740;-3.390;2022-09-03T12:28:42;3.85;;;1.60;;
23260;SDS011;11799;47.740;-3.390;2022-09-03T12:31:24;4.72;;;1.42;;
23260;SDS011;11799;47.740;-3.390;2022-09-03T12:34:01;3.28;;;1.40;;
23260;SDS011;11799;47.740;-3.390;2022-09-03T12:36:39;6.80;;;1.63;;
23260;SDS011;11799;47.740;-3.390;2022-09-03T12:39:07;2.60;;;1.70;;
23260;SDS011;11799;47.740;-3.390;2022-09-03T12:44:31;3.50;;;1.30;;
23260;SDS011;11799;47.740;-3.390;2022-09-03T12:47:01;5.68;;;1.20;;
23260;SDS011;11799;47.740;-3.390;2022-09-03T12:49:33;3.38;;;1.35;;
23260;SDS011;11799;47.740;-3.390;2022-09-03T12:52:02;5.03;;;1.30;;
23260;SDS011;11799;47.740;-3.390;2022-09-03T12:54:35;4.53;;;1.60;;
23260;SDS011;11799;47.740;-3.390;2022-09-03T12:57:08;3.83;;;1.60;;
23260;SDS011;11799;47.740;-3.390;2022-09-03T12:59:34;3.67;;;1.33;;
23260;SDS011;11799;47.740;-3.390;2022-09-03T13:02:11;3.28;;;1.38;;
23260;SDS011;11799;47.740;-3.390;2022-09-03T13:04:42;1.65;;;1.17;;
23260;SDS011;11799;47.740;-3.390;2022-09-03T13:07:14;3.10;;;1.40;;
23260;SDS011;11799;47.740;-3.390;2022-09-03T13:09:47;4.55;;;1.60;;
23260;SDS011;11799;47.740;-3.390;2022-09-03T13:12:20;5.15;;;1.60;;
23260;SDS011;11799;47.740;-3.390;2022-09-03T13:15:03;4.60;;;1.30;;
23260;SDS011;11799;47.740;-3.390;2022-09-03T13:20:33;5.82;;;1.48;;
23260;SDS011;11799;47.740;-3.390;2022-09-03T13:31:24;3.28;;;1.50;;
23260;SDS011;11799;47.740;-3.390;2022-09-03T13:34:15;3.65;;;1.17;;
23260;SDS011;11799;47.740;-3.390;2022-09-03T13:37:07;5.90;;;1.38;;
23260;SDS011;11799;47.740;-3.390;2022-09-03T13:39:40;7.55;;;1.48;;
23260;SDS011;11799;47.740;-3.390;2022-09-03T13:42:16;4.70;;;1.40;;
23260;SDS011;11799;47.740;-3.390;2022-09-03T13:45:07;3.58;;;1.33;;
23260;SDS011;11799;47.740;-3.390;2022-09-03T13:47:47;5.07;;;1.50;;
23260;SDS011;11799;47.740;-3.390;2022-09-03T13:50:50;3.33;;;1.30;;
23260;SDS011;11799;47.740;-3.390;2022-09-03T13:53:29;4.60;;;1.40;;
23260;SDS011;11799;47.740;-3.390;2022-09-03T13:59:06;6.95;;;2.30;;
23260;SDS011;11799;47.740;-3.390;2022-09-03T14:04:27;3.47;;;1.40;;
23260;SDS011;11799;47.740;-3.390;2022-09-03T14:07:07;4.13;;;1.40;;
23260;SDS011;11799;47.740;-3.390;2022-09-03T14:19:57;4.38;;;1.45;;
23260;SDS011;11799;47.740;-3.390;2022-09-03T14:25:33;4.82;;;1.63;;
23260;SDS011;11799;47.740;-3.390;2022-09-03T14:28:12;4.68;;;1.42;;
23260;SDS011;11799;47.740;-3.390;2022-09-03T14:33:45;5.18;;;1.50;;
23260;SDS011;11799;47.740;-3.390;2022-09-03T14:36:48;4.47;;;1.42;;
23260;SDS011;11799;47.740;-3.390;2022-09-03T14:42:28;4.25;;;1.40;;
23260;SDS011;11799;47.740;-3.390;2022-09-03T14:56:37;4.03;;;1.50;;
23260;SDS011;11799;47.740;-3.390;2022-09-03T15:12:54;5.53;;;1.63;;
23260;SDS011;11799;47.740;-3.390;2022-09-03T15:15:31;5.50;;;1.70;;
23260;SDS011;11799;47.740;-3.390;2022-09-03T15:24:46;5.32;;;2.40;;
23260;SDS011;11799;47.740;-3.390;2022-09-03T15:32:04;7.53;;;2.80;;
23260;SDS011;11799;47.740;-3.390;2022-09-03T15:40:07;5.38;;;2.05;;
23260;SDS011;11799;47.740;-3.390;2022-09-03T15:42:45;6.78;;;1.98;;
23260;SDS011;11799;47.740;-3.390;2022-09-03T15:48:00;7.82;;;2.38;;
23260;SDS011;11799;47.740;-3.390;2022-09-03T15:50:52;7.55;;;2.40;;
23260;SDS011;11799;47.740;-3.390;2022-09-03T15:57:00;4.35;;;1.75;;
23260;SDS011;11799;47.740;-3.390;2022-09-03T15:59:36;4.10;;;1.48;;
23260;SDS011;11799;47.740;-3.390;2022-09-03T16:02:05;6.43;;;1.77;;
23260;SDS011;11799;47.740;-3.390;2022-09-03T16:07:09;4.53;;;1.90;;
23260;SDS011;11799;47.740;-3.390;2022-09-03T16:12:51;5.28;;;1.70;;
23260;SDS011;11799;47.740;-3.390;2022-09-03T16:15:50;5.45;;;1.52;;
23260;SDS011;11799;47.740;-3.390;2022-09-03T16:18:24;9.07;;;1.85;;
23260;SDS011;11799;47.740;-3.390;2022-09-03T16:21:13;9.13;;;1.67;;
23260;SDS011;11799;47.740;-3.390;2022-09-03T16:24:01;7.03;;;1.73;;
23260;SDS011;11799;47.740;-3.390;2022-09-03T16:26:35;6.40;;;2.10;;
23260;SDS011;11799;47.740;-3.390;2022-09-03T16:29:12;7.68;;;2.47;;
23260;SDS011;11799;47.740;-3.390;2022-09-03T16:31:48;9.85;;;2.30;;
23260;SDS011;11799;47.740;-3.390;2022-09-03T16:43:04;8.23;;;1.88;;
23260;SDS011;11799;47.740;-3.390;2022-09-03T16:54:10;8.40;;;1.80;;
23260;SDS011;11799;47.740;-3.390;2022-09-03T17:21:36;5.55;;;1.88;;
23260;SDS011;11799;47.740;-3.390;2022-09-03T17:24:15;4.65;;;1.80;;
23260;SDS011;11799;47.740;-3.390;2022-09-03T17:46:35;8.18;;;2.03;;
23260;SDS011;11799;47.740;-3.390;2022-09-03T17:49:12;5.57;;;1.70;;
23260;SDS011;11799;47.740;-3.390;2022-09-03T17:52:10;8.20;;;2.25;;
23260;SDS011;11799;47.740;-3.390;2022-09-03T17:54:53;6.90;;;2.08;;
23260;SDS011;11799;47.740;-3.390;2022-09-03T17:57:28;6.20;;;2.00;;
23260;SDS011;11799;47.740;-3.390;2022-09-03T18:00:01;8.63;;;2.53;;
23260;SDS011;11799;47.740;-3.390;2022-09-03T18:05:26;9.00;;;2.00;;
23260;SDS011;11799;47.740;-3.390;2022-09-03T18:16:38;7.57;;;2.55;;
23260;SDS011;11799;47.740;-3.390;2022-09-03T18:19:18;8.93;;;2.50;;
23260;SDS011;11799;47.740;-3.390;2022-09-03T18:21:53;7.40;;;2.30;;
23260;SDS011;11799;47.740;-3.390;2022-09-03T18:24:50;7.38;;;2.33;;
23260;SDS011;11799;47.740;-3.390;2022-09-03T18:30:29;8.40;;;1.75;;
23260;SDS011;11799;47.740;-3.390;2022-09-03T18:33:14;12.15;;;2.38;;
23260;SDS011;11799;47.740;-3.390;2022-09-03T18:36:03;8.45;;;2.13;;
23260;SDS011;11799;47.740;-3.390;2022-09-03T18:38:48;5.85;;;1.90;;
23260;SDS011;11799;47.740;-3.390;2022-09-03T18:44:41;6.88;;;2.28;;
23260;SDS011;11799;47.740;-3.390;2022-09-03T18:47:36;7.63;;;2.30;;
23260;SDS011;11799;47.740;-3.390;2022-09-03T18:56:40;9.05;;;2.10;;
23260;SDS011;11799;47.740;-3.390;2022-09-03T19:08:36;6.97;;;1.92;;
23260;SDS011;11799;47.740;-3.390;2022-09-03T19:11:28;7.15;;;2.40;;
23260;SDS011;11799;47.740;-3.390;2022-09-03T19:14:31;6.18;;;2.08;;
23260;SDS011;11799;47.740;-3.390;2022-09-03T19:20:32;15.30;;;3.33;;
23260;SDS011;11799;47.740;-3.390;2022-09-03T19:23:19;10.05;;;2.40;;
23260;SDS011;11799;47.740;-3.390;2022-09-03T19:26:05;11.45;;;2.60;;
23260;SDS011;11799;47.740;-3.390;2022-09-03T19:29:04;9.13;;;2.45;;
23260;SDS011;11799;47.740;-3.390;2022-09-03T19:32:02;8.00;;;2.22;;
23260;SDS011;11799;47.740;-3.390;2022-09-03T19:35:04;9.57;;;2.40;;
23260;SDS011;11799;47.740;-3.390;2022-09-03T19:38:11;9.75;;;2.95;;
23260;SDS011;11799;47.740;-3.390;2022-09-03T19:52:33;7.95;;;2.83;;
23260;SDS011;11799;47.740;-3.390;2022-09-03T19:55:25;7.32;;;2.40;;
23260;SDS011;11799;47.740;-3.390;2022-09-03T19:58:12;12.48;;;2.28;;
23260;SDS011;11799;47.740;-3.390;2022-09-03T20:01:00;10.98;;;2.30;;
23260;SDS011;11799;47.740;-3.390;2022-09-03T20:03:45;4.57;;;2.10;;
23260;SDS011;11799;47.740;-3.390;2022-09-03T20:06:29;11.63;;;2.25;;
23260;SDS011;11799;47.740;-3.390;2022-09-03T20:09:16;7.07;;;2.50;;
23260;SDS011;11799;47.740;-3.390;2022-09-03T20:12:04;8.65;;;2.25;;
23260;SDS011;11799;47.740;-3.390;2022-09-03T20:14:33;11.68;;;2.63;;
23260;SDS011;11799;47.740;-3.390;2022-09-03T20:17:14;9.38;;;2.42;;
23260;SDS011;11799;47.740;-3.390;2022-09-03T20:33:26;12.95;;;2.50;;
23260;SDS011;11799;47.740;-3.390;2022-09-03T20:36:05;10.20;;;2.38;;
23260;SDS011;11799;47.740;-3.390;2022-09-03T20:49:44;10.82;;;1.95;;
23260;SDS011;11799;47.740;-3.390;2022-09-03T20:52:53;11.15;;;2.50;;
23260;SDS011;11799;47.740;-3.390;2022-09-03T20:55:42;10.38;;;2.28;;
23260;SDS011;11799;47.740;-3.390;2022-09-03T21:01:02;14.45;;;2.38;;
23260;SDS011;11799;47.740;-3.390;2022-09-03T21:03:40;19.95;;;2.78;;
23260;SDS011;11799;47.740;-3.390;2022-09-03T21:11:10;6.97;;;2.50;;
23260;SDS011;11799;47.740;-3.390;2022-09-03T21:16:47;8.00;;;2.42;;